createdAt,value
2023-01-20T00:00:36.805Z,1005.23
2023-01-20T00:01:36.756Z,1005.23
2023-01-20T00:02:36.786Z,1005.21
2023-01-20T00:03:36.832Z,1005.26
2023-01-20T00:04:36.749Z,1005.25
2023-01-20T00:05:36.708Z,1005.26
2023-01-20T00:06:36.705Z,1005.27
2023-01-20T00:07:36.696Z,1005.32
2023-01-20T00:08:36.695Z,1005.28
2023-01-20T00:09:36.684Z,1005.30
2023-01-20T00:10:36.664Z,1005.31
2023-01-20T00:11:36.649Z,1005.32
2023-01-20T00:12:36.643Z,1005.37
2023-01-20T00:13:36.630Z,1005.43
2023-01-20T00:14:36.637Z,1005.35
2023-01-20T00:15:36.633Z,1005.40
2023-01-20T00:16:36.598Z,1005.41
2023-01-20T00:17:36.585Z,1005.31
2023-01-20T00:18:36.601Z,1005.37
2023-01-20T00:19:36.596Z,1005.38
2023-01-20T00:20:36.555Z,1005.41
2023-01-20T00:21:36.539Z,1005.37
2023-01-20T00:22:36.537Z,1005.45
2023-01-20T00:23:36.555Z,1005.49
2023-01-20T00:24:36.538Z,1005.43
2023-01-20T00:25:36.497Z,1005.48
2023-01-20T00:26:36.493Z,1005.46
2023-01-20T00:27:36.475Z,1005.47
2023-01-20T00:28:36.489Z,1005.44
2023-01-20T00:29:36.478Z,1005.48
2023-01-20T00:30:36.468Z,1005.48
2023-01-20T00:31:36.560Z,1005.53
2023-01-20T00:32:36.423Z,1005.48
2023-01-20T00:33:36.434Z,1005.50
2023-01-20T00:34:36.448Z,1005.55
2023-01-20T00:35:36.392Z,1005.52
2023-01-20T00:36:36.393Z,1005.55
2023-01-20T00:37:36.367Z,1005.62
2023-01-20T00:38:36.366Z,1005.52
2023-01-20T00:39:36.377Z,1005.55
2023-01-20T00:40:36.341Z,1005.55
2023-01-20T00:41:36.328Z,1005.65
2023-01-20T00:42:36.316Z,1005.66
2023-01-20T00:43:36.309Z,1005.65
2023-01-20T00:44:36.318Z,1005.67
2023-01-20T00:45:36.280Z,1005.62
2023-01-20T00:46:36.280Z,1005.70
2023-01-20T00:47:36.264Z,1005.63
2023-01-20T00:48:36.257Z,1005.69
2023-01-20T00:49:36.256Z,1005.68
2023-01-20T00:50:36.255Z,1005.70
2023-01-20T00:51:36.222Z,1005.59
2023-01-20T00:52:36.212Z,1005.62
2023-01-20T00:53:36.220Z,1005.70
2023-01-20T00:54:36.186Z,1005.72
2023-01-20T00:55:36.176Z,1005.75
2023-01-20T00:56:36.194Z,1005.77
2023-01-20T00:57:36.149Z,1005.77
2023-01-20T00:58:36.167Z,1005.81
2023-01-20T00:59:36.129Z,1005.82
2023-01-20T01:00:36.156Z,1005.79
2023-01-20T01:01:36.302Z,1005.82
2023-01-20T01:02:36.110Z,1005.88
2023-01-20T01:03:36.102Z,1005.96
2023-01-20T01:04:36.079Z,1005.94
2023-01-20T01:05:36.067Z,1005.91
2023-01-20T01:06:36.100Z,1005.87
2023-01-20T01:07:36.048Z,1005.95
2023-01-20T01:08:36.061Z,1005.90
2023-01-20T01:09:36.050Z,1005.96
2023-01-20T01:10:36.015Z,1005.98
2023-01-20T01:11:36.003Z,1005.99
2023-01-20T01:12:35.994Z,1005.99
2023-01-20T01:13:36.004Z,1005.97
2023-01-20T01:14:35.975Z,1005.98
2023-01-20T01:15:35.960Z,1005.97
2023-01-20T01:16:35.989Z,1005.97
2023-01-20T01:17:35.963Z,1005.93
2023-01-20T01:18:35.935Z,1005.97
2023-01-20T01:19:35.920Z,1006.03
2023-01-20T01:20:35.905Z,1006.00
2023-01-20T01:21:35.901Z,1006.05
2023-01-20T01:22:35.934Z,1006.08
2023-01-20T01:23:35.870Z,1006.02
2023-01-20T01:24:35.892Z,1006.04
2023-01-20T01:25:35.852Z,1005.96
2023-01-20T01:26:35.841Z,1006.03
2023-01-20T01:27:35.831Z,1005.95
2023-01-20T01:28:35.832Z,1005.93
2023-01-20T01:29:35.830Z,1005.96
2023-01-20T01:30:35.845Z,1005.92
2023-01-20T01:31:35.832Z,1005.90
2023-01-20T01:32:35.777Z,1005.91
2023-01-20T01:33:35.774Z,1005.97
2023-01-20T01:34:35.785Z,1005.94
2023-01-20T01:35:35.748Z,1006.01
2023-01-20T01:36:35.756Z,1005.96
2023-01-20T01:37:35.736Z,1006.01
2023-01-20T01:38:35.737Z,1006.00
2023-01-20T01:39:35.742Z,1006.06
2023-01-20T01:40:35.728Z,1005.98
2023-01-20T01:41:35.696Z,1006.06
2023-01-20T01:42:35.673Z,1005.99
2023-01-20T01:43:35.671Z,1006.11
2023-01-20T01:44:35.650Z,1006.00
2023-01-20T01:45:35.709Z,1006.07
2023-01-20T01:46:35.647Z,1006.07
2023-01-20T01:47:35.620Z,1006.01
2023-01-20T01:48:35.618Z,1006.01
2023-01-20T01:49:35.599Z,1006.02
2023-01-20T01:50:35.609Z,1006.08
2023-01-20T01:51:35.586Z,1006.04
2023-01-20T01:52:35.562Z,1006.07
2023-01-20T01:53:35.604Z,1006.07
2023-01-20T01:54:35.559Z,1006.10
2023-01-20T01:55:35.533Z,1006.02
2023-01-20T01:56:35.529Z,1006.08
2023-01-20T01:57:35.515Z,1006.10
2023-01-20T01:58:35.503Z,1006.13
2023-01-20T01:59:35.507Z,1006.16
2023-01-20T02:00:35.495Z,1006.15
2023-01-20T02:01:35.541Z,1006.18
2023-01-20T02:02:35.476Z,1006.22
2023-01-20T02:03:35.447Z,1006.23
2023-01-20T02:04:35.447Z,1006.23
2023-01-20T02:05:35.454Z,1006.25
2023-01-20T02:06:35.410Z,1006.27
2023-01-20T02:07:35.408Z,1006.28
2023-01-20T02:08:35.390Z,1006.31
2023-01-20T02:09:35.386Z,1006.28
2023-01-20T02:10:35.405Z,1006.37
2023-01-20T02:11:35.361Z,1006.37
2023-01-20T02:12:35.346Z,1006.40
2023-01-20T02:13:35.367Z,1006.38
2023-01-20T02:14:35.335Z,1006.48
2023-01-20T02:15:35.318Z,1006.48
2023-01-20T02:16:35.383Z,1006.38
2023-01-20T02:17:35.308Z,1006.43
2023-01-20T02:18:35.305Z,1006.47
2023-01-20T02:19:35.272Z,1006.49
2023-01-20T02:20:35.264Z,1006.50
2023-01-20T02:21:35.259Z,1006.45
2023-01-20T02:22:35.243Z,1006.45
2023-01-20T02:23:35.258Z,1006.48
2023-01-20T02:24:35.219Z,1006.53
2023-01-20T02:25:35.209Z,1006.56
2023-01-20T02:26:35.213Z,1006.52
2023-01-20T02:27:35.207Z,1006.56
2023-01-20T02:28:35.179Z,1006.60
2023-01-20T02:29:35.169Z,1006.57
2023-01-20T02:30:35.200Z,1006.55
2023-01-20T02:31:35.177Z,1006.59
2023-01-20T02:32:35.127Z,1006.57
2023-01-20T02:33:35.141Z,1006.61
2023-01-20T02:34:35.114Z,1006.64
2023-01-20T02:35:35.133Z,1006.60
2023-01-20T02:36:35.090Z,1006.66
2023-01-20T02:37:35.085Z,1006.72
2023-01-20T02:38:35.073Z,1006.67
2023-01-20T02:39:35.085Z,1006.72
2023-01-20T02:40:35.065Z,1006.74
2023-01-20T02:41:35.038Z,1006.74
2023-01-20T02:42:35.053Z,1006.77
2023-01-20T02:43:35.020Z,1006.77
2023-01-20T02:44:35.038Z,1006.90
2023-01-20T02:45:35.021Z,1006.84
2023-01-20T02:46:34.986Z,1006.86
2023-01-20T02:47:34.976Z,1006.89
2023-01-20T02:48:34.964Z,1006.92
2023-01-20T02:49:34.968Z,1006.93
2023-01-20T02:50:34.965Z,1006.92
2023-01-20T02:51:34.930Z,1006.93
2023-01-20T02:52:34.920Z,1006.96
2023-01-20T02:53:34.906Z,1006.98
2023-01-20T02:54:34.894Z,1006.98
2023-01-20T02:55:34.907Z,1007.04
2023-01-20T02:56:34.882Z,1007.09
2023-01-20T02:57:34.868Z,1007.02
2023-01-20T02:58:34.878Z,1007.03
2023-01-20T02:59:34.850Z,1007.09
2023-01-20T03:00:34.862Z,1007.12
2023-01-20T03:01:34.967Z,1007.13
2023-01-20T03:02:34.812Z,1007.10
2023-01-20T03:03:34.815Z,1007.09
2023-01-20T03:04:34.805Z,1007.05
2023-01-20T03:05:34.862Z,1007.06
2023-01-20T03:06:34.772Z,1007.06
2023-01-20T03:07:34.765Z,1007.08
2023-01-20T03:08:34.747Z,1007.09
2023-01-20T03:09:34.733Z,1007.06
2023-01-20T03:10:34.752Z,1007.08
2023-01-20T03:11:36.208Z,1007.10
2023-01-20T03:12:34.704Z,1007.10
2023-01-20T03:13:34.691Z,1007.14
2023-01-20T03:14:34.728Z,1007.15
2023-01-20T03:15:34.701Z,1007.13
2023-01-20T03:16:34.663Z,1007.18
2023-01-20T03:17:34.657Z,1007.19
2023-01-20T03:18:34.644Z,1007.16
2023-01-20T03:19:34.625Z,1007.21
2023-01-20T03:20:34.621Z,1007.24
2023-01-20T03:21:34.620Z,1007.21
2023-01-20T03:22:34.596Z,1007.26
2023-01-20T03:23:34.612Z,1007.25
2023-01-20T03:24:34.576Z,1007.26
2023-01-20T03:25:34.563Z,1007.23
2023-01-20T03:26:34.563Z,1007.23
2023-01-20T03:27:34.543Z,1007.26
2023-01-20T03:28:34.559Z,1007.28
2023-01-20T03:29:34.523Z,1007.40
2023-01-20T03:30:34.656Z,1007.30
2023-01-20T03:31:34.649Z,1007.32
2023-01-20T03:32:34.495Z,1007.30
2023-01-20T03:33:34.476Z,1007.31
2023-01-20T03:34:34.522Z,1007.34
2023-01-20T03:35:34.458Z,1007.36
2023-01-20T03:36:34.447Z,1007.36
2023-01-20T03:37:34.430Z,1007.31
2023-01-20T03:38:34.431Z,1007.33
2023-01-20T03:39:34.441Z,1007.37
2023-01-20T03:40:34.415Z,1007.35
2023-01-20T03:41:34.394Z,1007.39
2023-01-20T03:42:34.382Z,1007.33
2023-01-20T03:43:34.406Z,1007.32
2023-01-20T03:44:34.363Z,1007.33
2023-01-20T03:45:34.346Z,1007.34
2023-01-20T03:46:34.357Z,1007.38
2023-01-20T03:47:34.329Z,1007.40
2023-01-20T03:48:34.324Z,1007.44
2023-01-20T03:49:34.326Z,1007.38
2023-01-20T03:50:34.298Z,1007.38
2023-01-20T03:51:34.284Z,1007.40
2023-01-20T03:52:46.931Z,1007.46
2023-01-20T03:53:35.260Z,1007.46
2023-01-20T03:54:34.278Z,1007.45
2023-01-20T03:55:34.241Z,1007.48
2023-01-20T03:56:34.234Z,1007.46
2023-01-20T03:57:34.240Z,1007.53
2023-01-20T03:58:34.214Z,1007.51
2023-01-20T03:59:34.204Z,1007.52
2023-01-20T04:00:34.195Z,1007.57
2023-01-20T04:01:34.358Z,1007.58
2023-01-20T04:02:34.216Z,1007.54
2023-01-20T04:03:34.287Z,1007.58
2023-01-20T04:04:34.151Z,1007.53
2023-01-20T04:05:34.132Z,1007.58
2023-01-20T04:06:34.124Z,1007.53
2023-01-20T04:07:34.111Z,1007.59
2023-01-20T04:08:34.147Z,1007.61
2023-01-20T04:09:34.120Z,1007.57
2023-01-20T04:10:34.094Z,1007.58
2023-01-20T04:11:34.091Z,1007.63
2023-01-20T04:12:34.056Z,1007.62
2023-01-20T04:13:34.075Z,1007.62
2023-01-20T04:14:34.037Z,1007.71
2023-01-20T04:15:34.046Z,1007.69
2023-01-20T04:16:34.038Z,1007.75
2023-01-20T04:17:34.006Z,1007.72
2023-01-20T04:18:34.038Z,1007.71
2023-01-20T04:19:33.987Z,1007.78
2023-01-20T04:20:33.975Z,1007.74
2023-01-20T04:21:33.967Z,1007.72
2023-01-20T04:22:33.966Z,1007.73
2023-01-20T04:23:33.966Z,1007.83
2023-01-20T04:24:33.932Z,1007.74
2023-01-20T04:25:33.922Z,1007.73
2023-01-20T04:26:33.911Z,1007.72
2023-01-20T04:27:33.897Z,1007.76
2023-01-20T04:28:33.909Z,1007.77
2023-01-20T04:29:33.907Z,1007.73
2023-01-20T04:30:33.916Z,1007.76
2023-01-20T04:31:33.977Z,1007.82
2023-01-20T04:32:33.847Z,1007.81
2023-01-20T04:33:33.839Z,1007.79
2023-01-20T04:34:33.869Z,1007.84
2023-01-20T04:35:33.825Z,1007.86
2023-01-20T04:36:33.811Z,1007.89
2023-01-20T04:37:33.806Z,1007.91
2023-01-20T04:38:33.812Z,1007.95
2023-01-20T04:39:33.770Z,1007.91
2023-01-20T04:40:33.788Z,1007.95
2023-01-20T04:41:33.749Z,1007.97
2023-01-20T04:42:33.741Z,1007.96
2023-01-20T04:43:33.728Z,1007.96
2023-01-20T04:44:33.720Z,1007.96
2023-01-20T04:45:33.728Z,1007.98
2023-01-20T04:46:35.999Z,1008.00
2023-01-20T04:47:33.702Z,1007.98
2023-01-20T04:48:33.676Z,1008.00
2023-01-20T04:49:33.684Z,1008.01
2023-01-20T04:50:33.685Z,1007.95
2023-01-20T04:51:33.642Z,1007.96
2023-01-20T04:52:33.633Z,1008.00
2023-01-20T04:53:33.617Z,1008.03
2023-01-20T04:54:33.634Z,1008.02
2023-01-20T04:55:33.597Z,1008.08
2023-01-20T04:56:33.596Z,1008.04
2023-01-20T04:57:33.582Z,1008.05
2023-01-20T04:58:33.574Z,1008.04
2023-01-20T04:59:33.583Z,1008.10
2023-01-20T05:00:33.548Z,1008.08
2023-01-20T05:01:33.628Z,1008.12
2023-01-20T05:02:33.560Z,1008.11
2023-01-20T05:03:33.508Z,1008.08
2023-01-20T05:04:33.525Z,1008.18
2023-01-20T05:05:33.487Z,1008.10
2023-01-20T05:06:33.501Z,1008.12
2023-01-20T05:07:33.468Z,1008.17
2023-01-20T05:08:33.461Z,1008.16
2023-01-20T05:09:33.483Z,1008.19
2023-01-20T05:10:33.444Z,1008.13
2023-01-20T05:11:33.421Z,1008.19
2023-01-20T05:12:33.421Z,1008.14
2023-01-20T05:13:33.408Z,1008.24
2023-01-20T05:14:33.399Z,1008.27
2023-01-20T05:15:33.463Z,1008.22
2023-01-20T05:16:33.375Z,1008.25
2023-01-20T05:17:33.362Z,1008.25
2023-01-20T05:18:33.353Z,1008.27
2023-01-20T05:19:33.340Z,1008.29
2023-01-20T05:20:33.349Z,1008.26
2023-01-20T05:21:33.320Z,1008.28
2023-01-20T05:22:33.403Z,1008.30
2023-01-20T05:23:33.294Z,1008.32
2023-01-20T05:24:33.288Z,1008.31
2023-01-20T05:25:33.294Z,1008.30
2023-01-20T05:26:33.278Z,1008.36
2023-01-20T05:27:33.257Z,1008.35
2023-01-20T05:28:33.273Z,1008.40
2023-01-20T05:29:33.233Z,1008.37
2023-01-20T05:30:33.278Z,1008.48
2023-01-20T05:31:33.300Z,1008.43
2023-01-20T05:32:33.202Z,1008.46
2023-01-20T05:33:33.207Z,1008.48
2023-01-20T05:34:33.177Z,1008.51
2023-01-20T05:35:33.165Z,1008.57
2023-01-20T05:36:33.160Z,1008.57
2023-01-20T05:37:33.148Z,1008.64
2023-01-20T05:38:33.172Z,1008.64
2023-01-20T05:39:33.140Z,1008.66
2023-01-20T05:40:33.121Z,1008.70
2023-01-20T05:41:33.101Z,1008.66
2023-01-20T05:42:33.094Z,1008.65
2023-01-20T05:43:33.112Z,1008.66
2023-01-20T05:44:33.097Z,1008.66
2023-01-20T05:45:33.091Z,1008.70
2023-01-20T05:46:33.080Z,1008.60
2023-01-20T05:47:33.047Z,1008.65
2023-01-20T05:48:33.030Z,1008.74
2023-01-20T05:49:33.048Z,1008.64
2023-01-20T05:50:33.014Z,1008.74
2023-01-20T05:51:32.996Z,1008.72
2023-01-20T05:52:32.988Z,1008.79
2023-01-20T05:53:32.977Z,1008.83
2023-01-20T05:54:33.007Z,1008.80
2023-01-20T05:55:32.962Z,1008.84
2023-01-20T05:56:32.957Z,1008.81
2023-01-20T05:57:32.937Z,1008.80
2023-01-20T05:58:32.923Z,1008.80
2023-01-20T05:59:32.940Z,1008.88
2023-01-20T06:00:32.927Z,1008.96
2023-01-20T06:01:32.993Z,1009.02
2023-01-20T06:02:32.936Z,1008.93
2023-01-20T06:03:32.888Z,1008.98
2023-01-20T06:04:32.881Z,1008.97
2023-01-20T06:05:32.850Z,1009.03
2023-01-20T06:06:32.847Z,1009.02
2023-01-20T06:07:32.823Z,1009.05
2023-01-20T06:08:32.826Z,1009.12
2023-01-20T06:09:32.800Z,1009.09
2023-01-20T06:10:32.832Z,1009.13
2023-01-20T06:11:32.798Z,1009.15
2023-01-20T06:12:32.776Z,1009.17
2023-01-20T06:13:32.787Z,1009.15
2023-01-20T06:14:32.756Z,1009.20
2023-01-20T06:15:32.739Z,1009.24
2023-01-20T06:16:32.778Z,1009.17
2023-01-20T06:17:32.718Z,1009.20
2023-01-20T06:18:32.732Z,1009.22
2023-01-20T06:19:32.705Z,1009.26
2023-01-20T06:20:32.687Z,1009.28
2023-01-20T06:21:32.678Z,1009.26
2023-01-20T06:22:32.696Z,1009.28
2023-01-20T06:23:32.647Z,1009.30
2023-01-20T06:24:32.645Z,1009.27
2023-01-20T06:25:32.632Z,1009.29
2023-01-20T06:26:32.666Z,1009.32
2023-01-20T06:27:32.615Z,1009.27
2023-01-20T06:28:32.602Z,1009.36
2023-01-20T06:29:32.589Z,1009.34
2023-01-20T06:30:32.720Z,1009.28
2023-01-20T06:31:32.638Z,1009.33
2023-01-20T06:32:32.561Z,1009.32
2023-01-20T06:33:32.571Z,1009.33
2023-01-20T06:34:32.559Z,1009.40
2023-01-20T06:35:32.524Z,1009.43
2023-01-20T06:36:32.561Z,1009.48
2023-01-20T06:37:32.502Z,1009.55
2023-01-20T06:38:32.493Z,1009.48
2023-01-20T06:39:32.482Z,1009.51
2023-01-20T06:40:32.481Z,1009.51
2023-01-20T06:41:32.509Z,1009.55
2023-01-20T06:42:32.473Z,1009.56
2023-01-20T06:43:32.439Z,1009.61
2023-01-20T06:44:32.436Z,1009.66
2023-01-20T06:45:32.424Z,1009.72
2023-01-20T06:46:32.434Z,1009.70
2023-01-20T06:47:32.399Z,1009.71
2023-01-20T06:48:32.413Z,1009.71
2023-01-20T06:49:32.377Z,1009.73
2023-01-20T06:50:32.371Z,1009.75
2023-01-20T06:51:32.352Z,1009.80
2023-01-20T06:52:32.350Z,1009.79
2023-01-20T06:53:32.365Z,1009.79
2023-01-20T06:54:32.326Z,1009.83
2023-01-20T06:55:32.317Z,1009.86
2023-01-20T06:56:32.302Z,1009.91
2023-01-20T06:57:32.291Z,1009.94
2023-01-20T06:58:32.329Z,1009.88
2023-01-20T06:59:32.266Z,1009.95
2023-01-20T07:00:32.278Z,1009.95
2023-01-20T07:01:32.395Z,1009.98
2023-01-20T07:02:32.283Z,1009.94
2023-01-20T07:03:32.227Z,1009.98
2023-01-20T07:04:32.213Z,1010.02
2023-01-20T07:05:32.211Z,1010.00
2023-01-20T07:06:32.192Z,1010.04
2023-01-20T07:07:32.200Z,1010.06
2023-01-20T07:08:32.172Z,1010.08
2023-01-20T07:09:32.162Z,1010.06
2023-01-20T07:10:32.146Z,1010.06
2023-01-20T07:11:32.151Z,1010.05
2023-01-20T07:12:32.154Z,1010.10
2023-01-20T07:13:32.118Z,1010.11
2023-01-20T07:14:32.149Z,1010.15
2023-01-20T07:15:32.103Z,1010.20
2023-01-20T07:16:32.136Z,1010.22
2023-01-20T07:17:32.083Z,1010.25
2023-01-20T07:18:32.093Z,1010.29
2023-01-20T07:19:32.135Z,1010.26
2023-01-20T07:20:32.043Z,1010.29
2023-01-20T07:21:32.032Z,1010.36
2023-01-20T07:22:32.023Z,1010.38
2023-01-20T07:23:32.043Z,1010.36
2023-01-20T07:24:32.000Z,1010.37
2023-01-20T07:25:31.996Z,1010.41
2023-01-20T07:26:31.987Z,1010.37
2023-01-20T07:27:31.968Z,1010.44
2023-01-20T07:28:31.975Z,1010.43
2023-01-20T07:29:31.946Z,1010.45
2023-01-20T07:30:31.997Z,1010.45
2023-01-20T07:31:31.999Z,1010.47
2023-01-20T07:32:31.938Z,1010.57
2023-01-20T07:33:31.902Z,1010.46
2023-01-20T07:34:31.900Z,1010.54
2023-01-20T07:35:31.881Z,1010.57
2023-01-20T07:36:31.872Z,1010.56
2023-01-20T07:37:31.915Z,1010.56
2023-01-20T07:38:31.879Z,1010.61
2023-01-20T07:39:31.854Z,1010.65
2023-01-20T07:40:31.827Z,1010.58
2023-01-20T07:41:31.819Z,1010.63
2023-01-20T07:42:31.835Z,1010.63
2023-01-20T07:43:31.799Z,1010.63
2023-01-20T07:44:31.787Z,1010.59
2023-01-20T07:45:31.817Z,1010.56
2023-01-20T07:46:31.809Z,1010.56
2023-01-20T07:47:31.762Z,1010.60
2023-01-20T07:48:31.752Z,1010.64
2023-01-20T07:49:31.736Z,1010.68
2023-01-20T07:50:31.720Z,1010.64
2023-01-20T07:51:31.733Z,1010.64
2023-01-20T07:52:31.710Z,1010.69
2023-01-20T07:53:31.692Z,1010.70
2023-01-20T07:54:31.708Z,1010.75
2023-01-20T07:55:31.679Z,1010.75
2023-01-20T07:56:31.684Z,1010.72
2023-01-20T07:57:31.690Z,1010.67
2023-01-20T07:58:31.639Z,1010.72
2023-01-20T07:59:31.645Z,1010.77
2023-01-20T08:00:31.616Z,1010.76
2023-01-20T08:01:31.741Z,1010.79
2023-01-20T08:02:31.611Z,1010.81
2023-01-20T08:03:31.583Z,1010.87
2023-01-20T08:04:31.592Z,1010.80
2023-01-20T08:05:31.563Z,1010.85
2023-01-20T08:06:31.550Z,1010.89
2023-01-20T08:07:31.564Z,1010.88
2023-01-20T08:08:31.531Z,1010.91
2023-01-20T08:09:31.537Z,1010.95
2023-01-20T08:10:31.560Z,1010.93
2023-01-20T08:11:31.505Z,1010.95
2023-01-20T08:12:31.482Z,1010.97
2023-01-20T08:13:31.480Z,1010.93
2023-01-20T08:14:31.485Z,1010.93
2023-01-20T08:15:31.469Z,1010.96
2023-01-20T08:16:31.494Z,1010.97
2023-01-20T08:17:31.439Z,1011.01
2023-01-20T08:18:31.442Z,1010.92
2023-01-20T08:19:31.457Z,1011.00
2023-01-20T08:20:31.398Z,1010.98
2023-01-20T08:21:31.420Z,1011.02
2023-01-20T08:22:31.397Z,1011.05
2023-01-20T08:23:31.366Z,1011.01
2023-01-20T08:24:31.379Z,1011.09
2023-01-20T08:25:31.349Z,1011.08
2023-01-20T08:26:31.347Z,1011.08
2023-01-20T08:27:31.325Z,1011.14
2023-01-20T08:28:31.315Z,1011.09
2023-01-20T08:29:31.330Z,1011.10
2023-01-20T08:30:31.452Z,1011.16
2023-01-20T08:31:31.437Z,1011.17
2023-01-20T08:32:31.275Z,1011.20
2023-01-20T08:33:31.283Z,1011.19
2023-01-20T08:34:31.273Z,1011.15
2023-01-20T08:35:31.242Z,1011.23
2023-01-20T08:36:31.237Z,1011.22
2023-01-20T08:37:31.221Z,1011.19
2023-01-20T08:38:31.226Z,1011.26
2023-01-20T08:39:31.223Z,1011.24
2023-01-20T08:40:33.282Z,1011.24
2023-01-20T08:41:31.185Z,1011.27
2023-01-20T08:42:31.163Z,1011.20
2023-01-20T08:43:31.152Z,1011.25
2023-01-20T08:44:31.175Z,1011.26
2023-01-20T08:45:31.136Z,1011.25
2023-01-20T08:46:31.118Z,1011.25
2023-01-20T08:47:31.122Z,1011.27
2023-01-20T08:48:31.122Z,1011.26
2023-01-20T08:49:31.092Z,1011.27
2023-01-20T08:50:31.103Z,1011.24
2023-01-20T08:51:31.138Z,1011.31
2023-01-20T08:52:31.060Z,1011.33
2023-01-20T08:53:31.088Z,1011.34
2023-01-20T08:54:31.036Z,1011.38
2023-01-20T08:55:31.028Z,1011.39
2023-01-20T08:56:31.019Z,1011.38
2023-01-20T08:57:31.016Z,1011.36
2023-01-20T08:58:31.016Z,1011.34
2023-01-20T08:59:30.992Z,1011.36
2023-01-20T09:00:30.992Z,1011.40
2023-01-20T09:01:31.075Z,1011.36
2023-01-20T09:02:31.038Z,1011.39
2023-01-20T09:03:33.040Z,1011.40
2023-01-20T09:04:30.929Z,1011.39
2023-01-20T09:05:30.924Z,1011.38
2023-01-20T09:06:30.934Z,1011.43
2023-01-20T09:07:30.895Z,1011.46
2023-01-20T09:08:30.887Z,1011.45
2023-01-20T09:09:30.899Z,1011.52
2023-01-20T09:10:30.884Z,1011.52
2023-01-20T09:11:31.022Z,1011.61
2023-01-20T09:12:30.842Z,1011.62
2023-01-20T09:13:30.831Z,1011.66
2023-01-20T09:14:30.821Z,1011.58
2023-01-20T09:15:30.852Z,1011.69
2023-01-20T09:16:30.801Z,1011.73
2023-01-20T09:17:30.795Z,1011.73
2023-01-20T09:18:30.776Z,1011.75
2023-01-20T09:19:30.793Z,1011.74
2023-01-20T09:20:30.762Z,1011.76
2023-01-20T09:21:30.748Z,1011.76
2023-01-20T09:22:30.815Z,1011.76
2023-01-20T09:23:30.724Z,1011.78
2023-01-20T09:24:30.750Z,1011.87
2023-01-20T09:25:30.732Z,1011.84
2023-01-20T09:26:35.810Z,1011.80
2023-01-20T09:27:31.703Z,1011.87
2023-01-20T09:28:30.671Z,1011.90
2023-01-20T09:29:30.666Z,1011.85
2023-01-20T09:30:30.669Z,1011.87
2023-01-20T09:31:30.887Z,1011.95
2023-01-20T09:32:30.636Z,1011.89
2023-01-20T09:33:30.641Z,1011.89
2023-01-20T09:34:30.611Z,1011.95
2023-01-20T09:35:30.616Z,1011.86
2023-01-20T09:36:30.587Z,1011.99
2023-01-20T09:37:30.579Z,1012.02
2023-01-20T09:38:30.619Z,1011.96
2023-01-20T09:39:30.567Z,1011.99
2023-01-20T09:40:30.545Z,1012.05
2023-01-20T09:41:30.541Z,1012.01
2023-01-20T09:42:30.521Z,1012.07
2023-01-20T09:43:30.538Z,1012.12
2023-01-20T09:44:30.500Z,1012.14
2023-01-20T09:45:30.515Z,1012.17
2023-01-20T09:46:30.543Z,1012.22
2023-01-20T09:47:31.281Z,1012.22
2023-01-20T09:48:30.457Z,1012.17
2023-01-20T09:49:30.480Z,1012.17
2023-01-20T09:50:30.454Z,1012.17
2023-01-20T09:51:30.432Z,1012.21
2023-01-20T09:52:30.422Z,1012.23
2023-01-20T09:53:30.403Z,1012.20
2023-01-20T09:54:30.447Z,1012.21
2023-01-20T09:55:30.380Z,1012.18
2023-01-20T09:56:30.400Z,1012.22
2023-01-20T09:57:30.361Z,1012.16
2023-01-20T09:58:30.356Z,1012.23
2023-01-20T09:59:30.356Z,1012.18
2023-01-20T10:00:30.365Z,1012.15
2023-01-20T10:01:30.339Z,1012.16
2023-01-20T10:02:30.303Z,1012.30
2023-01-20T10:03:30.300Z,1012.26
2023-01-20T10:04:30.286Z,1012.29
2023-01-20T10:05:30.362Z,1012.27
2023-01-20T10:06:30.289Z,1012.27
2023-01-20T10:07:30.252Z,1012.32
2023-01-20T10:08:30.240Z,1012.32
2023-01-20T10:09:33.362Z,1012.31
2023-01-20T10:10:30.263Z,1012.34
2023-01-20T10:11:30.288Z,1012.31
2023-01-20T10:12:30.200Z,1012.34
2023-01-20T10:13:30.197Z,1012.36
2023-01-20T10:14:30.180Z,1012.32
2023-01-20T10:15:30.183Z,1012.32
2023-01-20T10:16:30.154Z,1012.36
2023-01-20T10:17:30.149Z,1012.37
2023-01-20T10:18:30.139Z,1012.40
2023-01-20T10:19:30.134Z,1012.38
2023-01-20T10:20:30.149Z,1012.42
2023-01-20T10:21:30.131Z,1012.43
2023-01-20T10:22:30.102Z,1012.44
2023-01-20T10:23:30.081Z,1012.39
2023-01-20T10:24:30.073Z,1012.44
2023-01-20T10:25:30.057Z,1012.43
2023-01-20T10:26:30.104Z,1012.42
2023-01-20T10:27:30.064Z,1012.47
2023-01-20T10:28:30.052Z,1012.40
2023-01-20T10:29:30.022Z,1012.41
2023-01-20T10:30:30.078Z,1012.42
2023-01-20T10:31:30.083Z,1012.40
2023-01-20T10:32:29.984Z,1012.45
2023-01-20T10:33:29.975Z,1012.46
2023-01-20T10:34:29.964Z,1012.38
2023-01-20T10:35:29.949Z,1012.47
2023-01-20T10:36:29.936Z,1012.42
2023-01-20T10:37:29.961Z,1012.46
2023-01-20T10:38:29.924Z,1012.40
2023-01-20T10:39:29.908Z,1012.44
2023-01-20T10:40:29.955Z,1012.45
2023-01-20T10:41:29.893Z,1012.42
2023-01-20T10:42:29.907Z,1012.43
2023-01-20T10:43:29.869Z,1012.45
2023-01-20T10:44:29.855Z,1012.48
2023-01-20T10:45:29.846Z,1012.44
2023-01-20T10:46:29.886Z,1012.42
2023-01-20T10:47:29.853Z,1012.48
2023-01-20T10:48:29.809Z,1012.47
2023-01-20T10:49:29.800Z,1012.56
2023-01-20T10:50:29.830Z,1012.55
2023-01-20T10:51:29.807Z,1012.49
2023-01-20T10:52:29.790Z,1012.51
2023-01-20T10:53:29.758Z,1012.57
2023-01-20T10:54:29.743Z,1012.53
2023-01-20T10:55:29.751Z,1012.58
2023-01-20T10:56:31.146Z,1012.55
2023-01-20T10:57:29.733Z,1012.56
2023-01-20T10:58:29.775Z,1012.54
2023-01-20T10:59:29.698Z,1012.52
2023-01-20T11:00:29.710Z,1012.55
2023-01-20T11:01:29.707Z,1012.50
2023-01-20T11:02:29.827Z,1012.53
2023-01-20T11:03:29.690Z,1012.46
2023-01-20T11:04:29.641Z,1012.47
2023-01-20T11:05:29.653Z,1012.51
2023-01-20T11:06:29.636Z,1012.47
2023-01-20T11:07:29.606Z,1012.55
2023-01-20T11:08:29.613Z,1012.53
2023-01-20T11:09:29.584Z,1012.54
2023-01-20T11:10:29.575Z,1012.59
2023-01-20T11:11:29.586Z,1012.66
2023-01-20T11:12:29.647Z,1012.59
2023-01-20T11:13:29.542Z,1012.64
2023-01-20T11:14:29.600Z,1012.69
2023-01-20T11:15:29.561Z,1012.64
2023-01-20T11:16:29.535Z,1012.57
2023-01-20T11:17:29.520Z,1012.66
2023-01-20T11:18:29.509Z,1012.64
2023-01-20T11:19:29.472Z,1012.65
2023-01-20T11:20:29.466Z,1012.65
2023-01-20T11:21:29.454Z,1012.67
2023-01-20T11:22:29.479Z,1012.65
2023-01-20T11:23:29.432Z,1012.70
2023-01-20T11:24:29.425Z,1012.69
2023-01-20T11:25:29.421Z,1012.64
2023-01-20T11:26:29.435Z,1012.73
2023-01-20T11:27:29.389Z,1012.62
2023-01-20T11:28:29.378Z,1012.65
2023-01-20T11:29:29.365Z,1012.73
2023-01-20T11:30:29.404Z,1012.65
2023-01-20T11:31:29.422Z,1012.63
2023-01-20T11:32:29.348Z,1012.66
2023-01-20T11:33:29.420Z,1012.69
2023-01-20T11:34:29.339Z,1012.66
2023-01-20T11:35:29.299Z,1012.66
2023-01-20T11:36:29.320Z,1012.69
2023-01-20T11:37:29.283Z,1012.68
2023-01-20T11:38:29.270Z,1012.69
2023-01-20T11:39:29.269Z,1012.74
2023-01-20T11:40:29.248Z,1012.70
2023-01-20T11:41:29.264Z,1012.68
2023-01-20T11:42:29.228Z,1012.71
2023-01-20T11:43:29.218Z,1012.76
2023-01-20T11:44:29.212Z,1012.74
2023-01-20T11:45:29.220Z,1012.61
2023-01-20T11:46:29.309Z,1012.72
2023-01-20T11:47:29.172Z,1012.65
2023-01-20T11:48:29.167Z,1012.72
2023-01-20T11:49:29.147Z,1012.71
2023-01-20T11:50:29.144Z,1012.74
2023-01-20T11:51:29.180Z,1012.75
2023-01-20T11:52:29.147Z,1012.78
2023-01-20T11:53:29.125Z,1012.78
2023-01-20T11:54:29.132Z,1012.82
2023-01-20T11:55:29.083Z,1012.82
2023-01-20T11:56:29.080Z,1012.82
2023-01-20T11:57:29.080Z,1012.79
2023-01-20T11:58:29.087Z,1012.80
2023-01-20T11:59:29.077Z,1012.82
2023-01-20T12:00:29.030Z,1012.81
2023-01-20T12:01:29.027Z,1012.82
2023-01-20T12:02:29.030Z,1012.83
2023-01-20T12:03:29.023Z,1012.79
2023-01-20T12:04:29.112Z,1012.80
2023-01-20T12:05:28.982Z,1012.77